createdAt,value
2022-12-22T00:03:06.212Z,16.30
2022-12-22T00:09:18.616Z,16.67
2022-12-22T00:15:33.751Z,15.70
2022-12-22T00:21:51.006Z,16.70
2022-12-22T00:28:03.061Z,15.60
2022-12-22T00:34:14.043Z,15.07
2022-12-22T00:40:36.049Z,15.37
2022-12-22T00:46:48.395Z,16.53
2022-12-22T00:52:59.170Z,16.60
2022-12-22T00:59:13.149Z,15.30
2022-12-22T01:05:27.095Z,14.40
2022-12-22T01:11:38.005Z,15.93
2022-12-22T01:17:48.453Z,15.67
2022-12-22T01:24:01.338Z,14.60
2022-12-22T01:30:12.307Z,15.60
2022-12-22T01:36:23.890Z,16.10
2022-12-22T01:42:36.627Z,14.73
2022-12-22T01:48:48.802Z,15.87
2022-12-22T01:55:00.756Z,14.80
2022-12-22T02:01:13.031Z,15.13
2022-12-22T02:07:35.782Z,15.00
2022-12-22T02:13:56.112Z,15.60
2022-12-22T02:20:36.969Z,16.00
2022-12-22T02:26:52.558Z,14.67
2022-12-22T02:33:09.570Z,14.50
2022-12-22T02:39:31.973Z,13.70
2022-12-22T02:45:58.284Z,14.80
2022-12-22T02:52:20.404Z,14.90
2022-12-22T02:58:32.562Z,13.50
2022-12-22T03:04:44.936Z,13.67
2022-12-22T03:10:55.912Z,13.03
2022-12-22T03:17:06.984Z,13.80
2022-12-22T03:23:23.977Z,11.73
2022-12-22T03:29:17.569Z,12.07
2022-12-22T03:35:11.327Z,11.73
2022-12-22T03:41:06.393Z,11.50
2022-12-22T03:47:00.035Z,12.10
2022-12-22T03:52:53.543Z,11.43
2022-12-22T03:58:48.611Z,12.17
2022-12-22T04:04:42.082Z,11.53
2022-12-22T04:10:52.865Z,11.83
2022-12-22T04:16:47.829Z,12.13
2022-12-22T04:22:41.543Z,11.80
2022-12-22T04:28:35.049Z,11.40
2022-12-22T04:34:29.837Z,10.83
2022-12-22T04:40:23.283Z,10.47
2022-12-22T04:46:16.830Z,11.53
2022-12-22T04:52:11.992Z,11.20
2022-12-22T04:58:05.479Z,11.93
2022-12-22T05:03:58.590Z,14.27
2022-12-22T05:09:53.450Z,13.33
2022-12-22T05:15:46.899Z,12.80
2022-12-22T05:21:40.524Z,13.20
2022-12-22T05:27:35.541Z,12.87
2022-12-22T05:33:29.119Z,13.90
2022-12-22T05:39:22.157Z,13.87
2022-12-22T05:45:18.203Z,14.83
2022-12-22T05:51:12.037Z,13.20
2022-12-22T05:57:05.113Z,14.40
2022-12-22T06:03:00.576Z,14.50
2022-12-22T06:08:53.858Z,14.80
2022-12-22T06:14:48.528Z,15.40
2022-12-22T06:20:42.972Z,14.67
2022-12-22T06:26:36.036Z,15.23
2022-12-22T06:32:29.118Z,15.63
2022-12-22T06:38:24.096Z,17.00
2022-12-22T06:44:17.434Z,16.27
2022-12-22T06:50:11.953Z,15.93
2022-12-22T06:56:07.407Z,14.70
2022-12-22T07:02:00.730Z,15.63
2022-12-22T07:07:54.771Z,16.10
2022-12-22T07:13:49.804Z,16.10
2022-12-22T07:19:43.099Z,15.10
2022-12-22T07:25:36.754Z,14.03
2022-12-22T07:31:31.688Z,15.77
2022-12-22T07:37:25.277Z,14.87
2022-12-22T07:43:18.805Z,15.40
2022-12-22T07:49:31.164Z,15.80
2022-12-22T07:55:24.481Z,15.80
2022-12-22T08:01:17.939Z,14.70
2022-12-22T08:07:12.817Z,14.57
2022-12-22T08:13:06.295Z,14.57
2022-12-22T08:18:59.328Z,14.53
2022-12-22T08:24:54.694Z,13.67
2022-12-22T08:30:48.784Z,14.63
2022-12-22T08:36:45.929Z,14.10
2022-12-22T08:42:41.644Z,13.13
2022-12-22T08:48:34.756Z,14.63
2022-12-22T08:54:27.910Z,13.07
2022-12-22T09:00:23.526Z,13.30
2022-12-22T09:06:16.728Z,13.43
2022-12-22T09:12:10.290Z,13.50
2022-12-22T09:18:04.804Z,14.53
2022-12-22T09:23:59.002Z,14.50
2022-12-22T09:29:52.747Z,13.77
2022-12-22T09:35:47.563Z,13.87
2022-12-22T09:41:45.908Z,13.53
2022-12-22T09:47:41.369Z,13.20
2022-12-22T09:53:36.353Z,12.30
2022-12-22T09:59:31.582Z,13.73
2022-12-22T10:05:38.875Z,12.73
2022-12-22T10:11:33.708Z,12.97
2022-12-22T10:17:29.533Z,15.67
2022-12-22T10:23:29.577Z,18.00
2022-12-22T10:29:24.391Z,17.13
2022-12-22T10:35:17.574Z,20.70
2022-12-22T10:41:17.841Z,19.73
2022-12-22T10:47:18.189Z,22.47
2022-12-22T10:53:11.544Z,20.20
2022-12-22T10:59:20.375Z,19.80
2022-12-22T11:05:15.314Z,18.67
2022-12-22T11:11:14.460Z,19.10
2022-12-22T11:17:15.987Z,20.27
2022-12-22T11:23:17.820Z,16.80
2022-12-22T11:29:31.173Z,19.20
2022-12-22T11:35:39.853Z,18.93
2022-12-22T11:41:58.819Z,16.37
2022-12-22T11:48:00.945Z,13.17
2022-12-22T11:54:15.233Z,12.87
2022-12-22T12:00:13.963Z,11.90
2022-12-22T12:06:36.163Z,12.53
2022-12-22T12:12:38.767Z,10.13
2022-12-22T12:19:04.075Z,11.50
2022-12-22T12:25:03.484Z,11.10
2022-12-22T12:30:59.418Z,11.03
2022-12-22T12:37:00.100Z,12.27
2022-12-22T12:42:55.457Z,12.63
2022-12-22T12:48:48.695Z,11.23
2022-12-22T12:54:43.791Z,9.50
2022-12-22T13:00:50.962Z,10.60
2022-12-22T13:06:51.939Z,10.97
2022-12-22T13:12:53.774Z,10.50
2022-12-22T13:18:50.851Z,11.33
2022-12-22T13:24:49.224Z,11.17
2022-12-22T13:30:48.524Z,11.20
2022-12-22T13:36:43.004Z,9.30
2022-12-22T13:42:38.918Z,8.67
2022-12-22T13:48:44.135Z,9.10
2022-12-22T13:54:39.350Z,8.53
2022-12-22T14:00:33.896Z,10.97
2022-12-22T14:06:32.129Z,11.00
2022-12-22T14:12:28.186Z,8.20
2022-12-22T14:18:27.327Z,9.33
2022-12-22T14:24:26.698Z,8.40
2022-12-22T14:30:22.252Z,9.50
2022-12-22T14:36:18.164Z,8.50
2022-12-22T14:42:15.482Z,7.60
2022-12-22T14:48:11.087Z,7.90
2022-12-22T14:54:04.601Z,8.00
2022-12-22T15:00:06.741Z,7.63
2022-12-22T15:06:26.136Z,7.43
2022-12-22T15:12:20.381Z,8.77
2022-12-22T15:18:16.723Z,8.80
2022-12-22T15:24:12.147Z,14.00
2022-12-22T15:30:06.091Z,10.90
2022-12-22T15:36:01.588Z,10.07
2022-12-22T15:41:55.697Z,10.23
2022-12-22T15:47:52.279Z,10.83
2022-12-22T15:53:47.511Z,11.63
2022-12-22T15:59:41.021Z,11.23
2022-12-22T16:05:34.893Z,11.87
2022-12-22T16:11:29.904Z,12.37
2022-12-22T16:17:25.391Z,12.27
2022-12-22T16:23:20.829Z,12.20
2022-12-22T16:29:17.907Z,12.90
2022-12-22T16:35:18.468Z,12.10
2022-12-22T16:41:20.742Z,13.00
2022-12-22T16:47:20.162Z,12.20
2022-12-22T16:53:14.887Z,10.60
2022-12-22T16:59:07.924Z,10.60
2022-12-22T17:05:04.195Z,10.97
2022-12-22T17:11:04.814Z,9.83
2022-12-22T17:17:04.164Z,10.23
2022-12-22T17:23:01.771Z,10.23
2022-12-22T17:28:55.001Z,10.40
2022-12-22T17:34:48.521Z,12.60
2022-12-22T17:40:43.927Z,9.80
2022-12-22T17:46:37.333Z,8.93
2022-12-22T17:52:30.868Z,7.27
2022-12-22T17:58:25.834Z,8.70
2022-12-22T18:04:19.369Z,8.27
2022-12-22T18:10:25.355Z,9.20
2022-12-22T18:16:21.985Z,9.27
2022-12-22T18:22:19.202Z,10.83
2022-12-22T18:28:16.058Z,9.60
2022-12-22T18:34:10.966Z,8.67
2022-12-22T18:40:05.053Z,9.00
2022-12-22T18:45:58.091Z,9.37
2022-12-22T18:51:53.078Z,8.43
2022-12-22T18:57:47.322Z,8.67
2022-12-22T19:03:40.914Z,9.40
2022-12-22T19:09:35.906Z,21.30
2022-12-22T19:15:32.238Z,35.53
2022-12-22T19:21:25.976Z,14.40
2022-12-22T19:27:24.770Z,18.47
2022-12-22T19:33:23.533Z,42.87
2022-12-22T19:39:17.168Z,12.07
2022-12-22T19:45:21.880Z,9.40
2022-12-22T19:51:17.728Z,8.57
2022-12-22T19:57:19.177Z,9.13
2022-12-22T20:03:24.134Z,9.80
2022-12-22T20:09:17.420Z,8.90
2022-12-22T20:15:17.224Z,7.00
2022-12-22T20:21:17.190Z,9.17
2022-12-22T20:27:17.848Z,8.97
2022-12-22T20:33:12.615Z,9.13
2022-12-22T20:39:14.112Z,9.37
2022-12-22T20:45:07.723Z,11.77
2022-12-22T20:51:01.687Z,10.07
2022-12-22T20:56:57.049Z,11.47
2022-12-22T21:02:51.063Z,9.63
2022-12-22T21:08:44.745Z,10.07
2022-12-22T21:14:39.343Z,11.87
2022-12-22T21:20:33.300Z,9.70
2022-12-22T21:26:33.106Z,9.83
2022-12-22T21:32:27.985Z,11.40
2022-12-22T21:38:24.745Z,10.23
2022-12-22T21:44:18.505Z,11.10
2022-12-22T21:50:20.976Z,10.93
2022-12-22T21:56:19.437Z,11.70
2022-12-22T22:02:17.894Z,10.20
2022-12-22T22:08:13.695Z,11.40
2022-12-22T22:14:07.184Z,12.20
2022-12-22T22:20:00.710Z,11.00
2022-12-22T22:25:59.917Z,12.00
2022-12-22T22:31:53.083Z,13.53
2022-12-22T22:37:50.985Z,12.77
2022-12-22T22:43:45.803Z,13.97
2022-12-22T22:49:39.285Z,12.20
2022-12-22T22:55:32.957Z,12.23
2022-12-22T23:01:27.822Z,11.40
2022-12-22T23:07:21.348Z,13.73
2022-12-22T23:13:14.807Z,11.90
2022-12-22T23:19:09.664Z,11.67
2022-12-22T23:25:03.127Z,12.77
2022-12-22T23:30:56.651Z,12.60
2022-12-22T23:36:52.169Z,12.90
2022-12-22T23:42:45.638Z,13.80
2022-12-22T23:48:40.409Z,14.33
2022-12-22T23:54:35.269Z,13.93
